createdAt,value
2022-11-29T00:01:23.690Z,58.83
2022-11-29T00:03:50.869Z,58.92
2022-11-29T00:06:21.216Z,59.16
2022-11-29T00:08:49.065Z,59.17
2022-11-29T00:11:40.566Z,59.28
2022-11-29T00:14:09.485Z,59.35
2022-11-29T00:16:36.922Z,59.31
2022-11-29T00:19:04.168Z,59.46
2022-11-29T00:21:31.016Z,59.37
2022-11-29T00:23:57.935Z,59.50
2022-11-29T00:26:25.127Z,59.54
2022-11-29T00:28:52.138Z,59.30
2022-11-29T00:31:20.515Z,59.56
2022-11-29T00:33:47.733Z,59.52
2022-11-29T00:36:15.615Z,59.79
2022-11-29T00:38:42.800Z,59.63
2022-11-29T00:41:10.660Z,59.95
2022-11-29T00:43:38.136Z,59.62
2022-11-29T00:46:05.493Z,59.87
2022-11-29T00:48:32.791Z,59.91
2022-11-29T00:50:59.858Z,59.88
2022-11-29T00:53:29.805Z,60.08
2022-11-29T00:55:57.025Z,60.17
2022-11-29T00:58:24.054Z,60.21
2022-11-29T01:00:52.823Z,60.17
2022-11-29T01:03:19.765Z,60.16
2022-11-29T01:05:47.140Z,60.23
2022-11-29T01:08:15.147Z,60.39
2022-11-29T01:10:42.595Z,60.37
2022-11-29T01:13:10.653Z,60.45
2022-11-29T01:15:37.675Z,60.29
2022-11-29T01:18:04.672Z,60.59
2022-11-29T01:20:31.750Z,60.48
2022-11-29T01:22:59.171Z,60.72
2022-11-29T01:25:26.142Z,60.52
2022-11-29T01:27:53.038Z,60.54
2022-11-29T01:30:20.085Z,60.76
2022-11-29T01:32:46.998Z,60.89
2022-11-29T01:35:13.913Z,60.81
2022-11-29T01:37:40.751Z,60.79
2022-11-29T01:40:08.213Z,60.78
2022-11-29T01:42:35.193Z,60.97
2022-11-29T01:45:21.057Z,61.07
2022-11-29T01:47:50.161Z,61.08
2022-11-29T01:50:17.288Z,60.93
2022-11-29T01:52:44.876Z,61.13
2022-11-29T01:55:12.423Z,61.26
2022-11-29T01:57:41.669Z,61.09
2022-11-29T02:00:13.302Z,61.28
2022-11-29T02:02:45.149Z,61.11
2022-11-29T02:05:14.766Z,61.13
2022-11-29T02:07:45.958Z,61.22
2022-11-29T02:10:13.590Z,61.39
2022-11-29T02:13:17.921Z,61.14
2022-11-29T02:16:12.621Z,61.41
2022-11-29T02:18:51.910Z,61.42
2022-11-29T02:21:38.370Z,61.38
2022-11-29T02:24:32.087Z,61.58
2022-11-29T02:27:34.384Z,61.36
2022-11-29T02:30:40.047Z,61.57
2022-11-29T02:33:32.644Z,61.48
2022-11-29T02:36:23.291Z,61.64
2022-11-29T02:39:25.196Z,61.50
2022-11-29T02:42:22.255Z,61.55
2022-11-29T02:45:22.142Z,61.78
2022-11-29T02:47:48.998Z,61.62
2022-11-29T02:50:28.628Z,61.67
2022-11-29T02:53:06.752Z,61.89
2022-11-29T02:55:36.578Z,61.62
2022-11-29T02:58:35.361Z,61.67
2022-11-29T03:01:17.157Z,61.70
2022-11-29T03:03:53.552Z,61.76
2022-11-29T03:06:34.211Z,61.78
2022-11-29T03:09:23.250Z,61.82
2022-11-29T03:12:04.919Z,61.82
2022-11-29T03:14:50.755Z,61.89
2022-11-29T03:17:23.847Z,61.85
2022-11-29T03:20:12.624Z,62.10
2022-11-29T03:23:08.337Z,61.84
2022-11-29T03:26:00.175Z,62.02
2022-11-29T03:28:38.658Z,61.92
2022-11-29T03:31:16.409Z,62.12
2022-11-29T03:33:48.879Z,61.98
2022-11-29T03:36:37.185Z,62.21
2022-11-29T03:39:10.885Z,61.93
2022-11-29T03:41:48.770Z,62.09
2022-11-29T03:44:26.558Z,62.25
2022-11-29T03:47:05.054Z,62.12
2022-11-29T03:49:38.145Z,62.21
2022-11-29T03:52:23.557Z,62.21
2022-11-29T03:55:06.166Z,62.37
2022-11-29T03:58:00.946Z,62.15
2022-11-29T04:00:47.970Z,62.17
2022-11-29T04:03:30.037Z,62.27
2022-11-29T04:06:22.134Z,62.37
2022-11-29T04:09:07.179Z,62.33
2022-11-29T04:11:59.143Z,62.15
2022-11-29T04:14:49.483Z,62.30
2022-11-29T04:17:36.539Z,62.43
2022-11-29T04:20:45.309Z,62.18
2022-11-29T04:23:35.649Z,62.30
2022-11-29T04:26:14.394Z,62.35
2022-11-29T04:29:02.355Z,62.39
2022-11-29T04:32:18.688Z,62.23
2022-11-29T04:34:45.850Z,62.37
2022-11-29T04:37:45.643Z,62.37
2022-11-29T04:40:42.364Z,62.42
2022-11-29T04:43:36.347Z,62.25
2022-11-29T04:46:12.450Z,62.23
2022-11-29T04:48:41.935Z,62.42
2022-11-29T04:51:18.316Z,62.55
2022-11-29T04:54:12.110Z,62.54
2022-11-29T04:56:50.386Z,62.53
2022-11-29T04:59:32.269Z,62.34
2022-11-29T05:02:04.792Z,62.60
2022-11-29T05:04:44.040Z,62.50
2022-11-29T05:07:29.826Z,62.29
2022-11-29T05:10:05.376Z,62.63
2022-11-29T05:12:50.819Z,62.49
2022-11-29T05:15:45.058Z,62.44
2022-11-29T05:18:17.858Z,62.40
2022-11-29T05:21:26.067Z,62.66
2022-11-29T05:24:07.650Z,62.50
2022-11-29T05:26:49.433Z,62.61
2022-11-29T05:29:39.443Z,62.66
2022-11-29T05:32:24.559Z,62.59
2022-11-29T05:34:54.232Z,62.67
2022-11-29T05:37:54.727Z,62.52
2022-11-29T05:40:44.141Z,62.60
2022-11-29T05:43:32.357Z,62.64
2022-11-29T05:46:19.027Z,62.52
2022-11-29T05:48:54.987Z,62.75
2022-11-29T05:51:23.600Z,62.61
2022-11-29T05:54:52.595Z,62.55
2022-11-29T05:57:34.819Z,62.66
2022-11-29T06:00:04.440Z,62.51
2022-11-29T06:02:54.171Z,62.77
2022-11-29T06:05:49.901Z,63.15
2022-11-29T06:08:42.326Z,63.05
2022-11-29T06:11:37.270Z,62.95
2022-11-29T06:14:41.905Z,62.77
2022-11-29T06:17:39.869Z,62.96
2022-11-29T06:20:16.425Z,62.94
2022-11-29T06:23:24.013Z,62.90
2022-11-29T06:26:09.849Z,62.97
2022-11-29T06:28:55.576Z,63.20
2022-11-29T06:31:52.490Z,63.26
2022-11-29T06:34:31.622Z,62.92
2022-11-29T06:37:09.499Z,63.20
2022-11-29T06:39:36.672Z,63.15
2022-11-29T06:42:03.782Z,62.92
2022-11-29T06:44:30.958Z,63.25
2022-11-29T06:47:08.478Z,62.95
2022-11-29T06:49:58.566Z,63.13
2022-11-29T06:52:47.012Z,62.76
2022-11-29T06:56:01.472Z,62.75
2022-11-29T06:58:36.017Z,62.76
2022-11-29T07:01:15.565Z,62.82
2022-11-29T07:04:06.590Z,62.69
2022-11-29T07:06:35.268Z,62.71
2022-11-29T07:09:13.645Z,62.70
2022-11-29T07:11:40.989Z,62.76
2022-11-29T07:14:08.244Z,62.62
2022-11-29T07:16:55.854Z,62.65
2022-11-29T07:19:33.008Z,62.49
2022-11-29T07:22:29.695Z,62.54
2022-11-29T07:25:08.460Z,62.49
2022-11-29T07:28:13.935Z,62.49
2022-11-29T07:30:46.708Z,62.84
2022-11-29T07:33:55.606Z,62.74
2022-11-29T07:36:31.136Z,58.56
2022-11-29T07:39:16.458Z,58.38
2022-11-29T07:42:15.941Z,57.56
2022-11-29T07:45:02.955Z,58.50
2022-11-29T07:47:35.333Z,60.31
2022-11-29T07:50:02.968Z,60.33
2022-11-29T07:52:29.884Z,61.05
2022-11-29T07:54:56.819Z,60.80
2022-11-29T07:57:23.802Z,60.85
2022-11-29T07:59:50.689Z,61.15
2022-11-29T08:02:30.312Z,61.44
2022-11-29T08:04:57.344Z,61.80
2022-11-29T08:07:24.810Z,62.21
2022-11-29T08:09:51.796Z,62.44
2022-11-29T08:12:18.732Z,62.28
2022-11-29T08:14:45.916Z,62.54
2022-11-29T08:17:13.020Z,62.67
2022-11-29T08:19:40.092Z,62.65
2022-11-29T08:22:07.528Z,62.66
2022-11-29T08:24:34.508Z,63.05
2022-11-29T08:27:01.447Z,63.03
2022-11-29T08:29:28.388Z,62.89
2022-11-29T08:31:55.875Z,63.21
2022-11-29T08:34:24.912Z,63.19
2022-11-29T08:36:52.073Z,63.02
2022-11-29T08:39:18.862Z,63.08
2022-11-29T08:41:45.912Z,63.01
2022-11-29T08:44:12.967Z,62.96
2022-11-29T08:46:58.401Z,63.01
2022-11-29T08:49:25.558Z,63.26
2022-11-29T08:52:16.287Z,63.11
2022-11-29T08:54:43.721Z,63.19
2022-11-29T08:57:38.413Z,62.95
2022-11-29T08:59:58.296Z,63.08
2022-11-29T09:02:25.529Z,63.21
2022-11-29T09:04:52.658Z,63.13
2022-11-29T09:07:19.855Z,63.12
2022-11-29T09:09:46.948Z,62.83
2022-11-29T09:12:14.255Z,62.84
2022-11-29T09:14:41.553Z,62.98
2022-11-29T09:17:08.597Z,63.02
2022-11-29T09:19:35.869Z,62.93
2022-11-29T09:22:03.803Z,62.88
2022-11-29T09:24:31.262Z,62.88
2022-11-29T09:26:58.375Z,62.92
2022-11-29T09:29:25.362Z,62.77
2022-11-29T09:31:52.687Z,62.86
2022-11-29T09:34:19.913Z,62.98
2022-11-29T09:36:46.971Z,62.83
2022-11-29T09:39:16.437Z,62.64
2022-11-29T09:41:58.772Z,62.73
2022-11-29T09:44:47.041Z,63.04
2022-11-29T09:47:30.060Z,62.90
2022-11-29T09:50:19.067Z,62.91
2022-11-29T09:53:12.955Z,62.72
2022-11-29T09:56:13.560Z,62.87
2022-11-29T09:58:59.316Z,62.75
2022-11-29T10:01:33.976Z,62.65
2022-11-29T10:04:14.310Z,62.88
2022-11-29T10:06:50.948Z,62.67
2022-11-29T10:09:26.620Z,62.84
2022-11-29T10:12:11.661Z,59.59
2022-11-29T10:14:57.535Z,61.14
2022-11-29T10:17:33.226Z,61.98
2022-11-29T10:20:23.953Z,61.99
2022-11-29T10:22:53.881Z,62.53
2022-11-29T10:25:25.795Z,62.56
2022-11-29T10:27:53.717Z,62.65
2022-11-29T10:30:21.071Z,63.09
2022-11-29T10:33:01.135Z,62.87
2022-11-29T10:35:29.958Z,62.88
2022-11-29T10:40:54.345Z,63.15
2022-11-29T10:43:21.431Z,62.96
2022-11-29T10:45:56.409Z,63.27
2022-11-29T10:48:27.624Z,63.01
2022-11-29T10:50:54.646Z,63.03
2022-11-29T10:53:37.705Z,63.26
2022-11-29T10:56:07.528Z,63.36
2022-11-29T10:58:35.374Z,63.48
2022-11-29T11:01:02.488Z,61.15
2022-11-29T11:03:32.730Z,61.12
2022-11-29T11:06:07.448Z,61.58
2022-11-29T11:08:35.869Z,61.97
2022-11-29T11:11:05.108Z,62.40
2022-11-29T11:13:33.084Z,62.35
2022-11-29T11:16:10.652Z,62.68
2022-11-29T11:18:38.792Z,62.91
2022-11-29T11:21:10.968Z,63.11
2022-11-29T11:23:43.683Z,63.18
2022-11-29T11:26:13.715Z,63.39
2022-11-29T11:28:44.069Z,63.22
2022-11-29T11:31:13.162Z,63.52
2022-11-29T11:33:46.800Z,63.48
2022-11-29T11:36:19.687Z,63.37
2022-11-29T11:38:57.251Z,63.79
2022-11-29T11:41:55.699Z,62.74
2022-11-29T11:44:51.718Z,62.84
2022-11-29T11:47:24.688Z,63.69
2022-11-29T11:49:57.261Z,61.81
2022-11-29T11:52:28.878Z,60.91
2022-11-29T11:54:59.473Z,62.18
2022-11-29T11:57:27.739Z,62.28
2022-11-29T12:00:06.464Z,63.15
2022-11-29T12:02:40.918Z,63.17
2022-11-29T12:05:19.937Z,63.62
2022-11-29T12:08:07.909Z,63.68
2022-11-29T12:10:38.906Z,63.88
2022-11-29T12:13:06.094Z,63.97
2022-11-29T12:15:38.992Z,64.15
2022-11-29T12:18:30.050Z,64.02
2022-11-29T12:21:06.117Z,64.43
2022-11-29T12:23:46.542Z,64.30
2022-11-29T12:26:56.794Z,64.38
2022-11-29T12:29:28.637Z,64.24
2022-11-29T12:32:19.326Z,64.35
2022-11-29T12:34:56.202Z,64.41
2022-11-29T12:37:35.762Z,64.83
2022-11-29T12:40:26.906Z,64.89
2022-11-29T12:43:04.575Z,65.07
2022-11-29T12:45:55.996Z,64.90
2022-11-29T12:48:29.049Z,65.26
2022-11-29T12:51:42.405Z,65.03
2022-11-29T12:54:38.657Z,64.97
2022-11-29T12:57:17.832Z,65.17
2022-11-29T13:00:13.639Z,65.23
2022-11-29T13:02:59.251Z,65.05
2022-11-29T13:05:41.403Z,65.20
2022-11-29T13:08:11.518Z,65.16
2022-11-29T13:11:04.517Z,64.98
2022-11-29T13:14:34.704Z,65.21
2022-11-29T13:17:06.091Z,65.04
2022-11-29T13:20:04.770Z,65.16
2022-11-29T13:22:48.783Z,65.05
2022-11-29T13:25:21.722Z,65.18
2022-11-29T13:28:02.050Z,65.15
2022-11-29T13:30:29.177Z,65.27
2022-11-29T13:33:20.249Z,65.23
2022-11-29T13:36:08.354Z,65.01
2022-11-29T13:38:37.316Z,65.18
2022-11-29T13:41:22.004Z,65.09
2022-11-29T13:43:58.227Z,65.14
2022-11-29T13:46:36.783Z,65.00
2022-11-29T13:49:04.020Z,64.87
2022-11-29T13:51:33.201Z,64.87
2022-11-29T13:54:03.519Z,64.76
2022-11-29T13:56:46.776Z,65.03
2022-11-29T13:59:28.207Z,64.73
2022-11-29T14:01:57.418Z,64.84
2022-11-29T14:04:35.103Z,64.85
2022-11-29T14:07:16.698Z,64.82
2022-11-29T14:10:28.418Z,64.97
2022-11-29T14:12:57.935Z,64.93
2022-11-29T14:15:31.746Z,64.74
2022-11-29T14:18:07.681Z,64.92
2022-11-29T14:20:43.804Z,64.94
2022-11-29T14:23:16.631Z,64.83
2022-11-29T14:26:03.551Z,64.85
2022-11-29T14:28:31.997Z,64.63
2022-11-29T14:31:04.143Z,64.81
2022-11-29T14:33:52.666Z,64.61
2022-11-29T14:36:40.239Z,64.64
2022-11-29T14:39:51.206Z,64.58
2022-11-29T14:42:20.941Z,64.73
2022-11-29T14:44:52.042Z,64.57
2022-11-29T14:47:33.358Z,64.88
2022-11-29T14:50:04.389Z,64.74
2022-11-29T14:52:39.916Z,64.54
2022-11-29T14:55:26.942Z,64.57
2022-11-29T14:57:55.134Z,64.42
2022-11-29T15:00:23.744Z,64.52
2022-11-29T15:03:18.110Z,64.41
2022-11-29T15:05:49.223Z,64.67
2022-11-29T15:08:28.153Z,64.78
2022-11-29T15:11:10.439Z,64.46
2022-11-29T15:13:42.771Z,64.66
2022-11-29T15:16:27.056Z,64.56
2022-11-29T15:19:13.662Z,64.68
2022-11-29T15:22:15.008Z,64.63
2022-11-29T15:25:00.405Z,64.52
2022-11-29T15:27:27.909Z,64.51
2022-11-29T15:29:55.427Z,64.60
2022-11-29T15:32:29.834Z,64.74
2022-11-29T15:34:57.951Z,64.69
2022-11-29T15:37:39.762Z,64.57
2022-11-29T15:40:13.702Z,64.62
2022-11-29T15:42:43.485Z,64.82
2022-11-29T15:45:29.093Z,64.71
2022-11-29T15:48:11.114Z,64.60
2022-11-29T15:50:40.339Z,64.98
2022-11-29T15:53:12.526Z,64.65
2022-11-29T15:55:40.004Z,64.63
2022-11-29T15:58:09.014Z,64.79
2022-11-29T16:00:36.758Z,64.85
2022-11-29T16:03:06.220Z,64.93
2022-11-29T16:05:38.807Z,64.74
2022-11-29T16:08:16.138Z,64.80
2022-11-29T16:10:53.757Z,64.98
2022-11-29T16:13:26.688Z,64.85
2022-11-29T16:16:15.851Z,65.10
2022-11-29T16:18:45.539Z,65.01
2022-11-29T16:21:33.153Z,65.19
2022-11-29T16:24:13.004Z,65.17
2022-11-29T16:26:46.726Z,65.17
2022-11-29T16:29:36.843Z,65.13
2022-11-29T16:32:22.716Z,62.81
2022-11-29T16:34:50.096Z,61.91
2022-11-29T16:37:20.928Z,62.85
2022-11-29T16:39:51.056Z,63.24
2022-11-29T16:42:28.347Z,63.61
2022-11-29T16:44:55.396Z,63.77
2022-11-29T16:47:26.794Z,64.00
2022-11-29T16:50:03.385Z,63.89
2022-11-29T16:52:32.526Z,64.05
2022-11-29T16:55:00.283Z,64.31
2022-11-29T16:57:29.219Z,64.44
2022-11-29T16:59:56.324Z,64.56
2022-11-29T17:02:23.368Z,64.70
2022-11-29T17:04:51.698Z,63.83
2022-11-29T17:07:27.596Z,62.04
2022-11-29T17:09:54.947Z,62.69
2022-11-29T17:12:22.000Z,63.36
2022-11-29T17:14:49.155Z,63.62
2022-11-29T17:17:17.926Z,63.62
2022-11-29T17:19:46.368Z,63.76
2022-11-29T17:22:13.353Z,63.97
2022-11-29T17:24:44.929Z,63.82
2022-11-29T17:27:14.866Z,63.60
2022-11-29T17:29:41.835Z,63.77
2022-11-29T17:32:08.924Z,63.50
2022-11-29T17:34:36.036Z,63.45
2022-11-29T17:37:03.235Z,63.45
2022-11-29T17:39:30.291Z,63.40
2022-11-29T17:41:57.316Z,63.48
2022-11-29T17:44:24.513Z,63.40
2022-11-29T17:46:51.515Z,63.13
2022-11-29T17:49:18.988Z,63.34
2022-11-29T17:51:53.813Z,63.19
2022-11-29T17:54:22.317Z,63.55
2022-11-29T17:56:50.017Z,63.16
2022-11-29T17:59:17.291Z,63.27
2022-11-29T18:01:47.374Z,63.05
2022-11-29T18:04:15.054Z,63.21
2022-11-29T18:06:42.077Z,63.08
2022-11-29T18:09:10.891Z,62.98
2022-11-29T18:11:47.444Z,63.10
2022-11-29T18:14:24.324Z,62.88
2022-11-29T18:16:52.352Z,62.78
2022-11-29T18:19:22.545Z,62.56
2022-11-29T18:21:50.648Z,62.67
2022-11-29T18:24:17.986Z,62.42
2022-11-29T18:26:45.178Z,62.35
2022-11-29T18:29:12.608Z,62.53
2022-11-29T18:31:42.347Z,61.98
2022-11-29T18:34:14.334Z,61.48
2022-11-29T18:36:46.928Z,61.17
2022-11-29T18:39:20.066Z,61.35
2022-11-29T18:41:50.338Z,61.13
2022-11-29T18:44:20.272Z,61.46
2022-11-29T18:46:48.743Z,61.72
2022-11-29T18:49:18.077Z,61.79
2022-11-29T18:51:46.594Z,61.82
2022-11-29T18:54:15.129Z,61.78
2022-11-29T18:56:42.737Z,61.73
2022-11-29T18:59:12.013Z,61.43
2022-11-29T19:01:43.018Z,61.64
2022-11-29T19:04:11.774Z,61.28
2022-11-29T19:06:40.136Z,61.41
2022-11-29T19:09:12.046Z,61.30
2022-11-29T19:11:39.385Z,61.34
2022-11-29T19:14:12.029Z,61.36
2022-11-29T19:16:43.908Z,61.22
2022-11-29T19:19:11.775Z,61.25
2022-11-29T19:21:42.669Z,61.03
2022-11-29T19:24:18.511Z,60.98
2022-11-29T19:26:47.856Z,60.92
2022-11-29T19:29:16.331Z,60.98
2022-11-29T19:31:44.096Z,60.84
2022-11-29T19:34:11.936Z,60.70
2022-11-29T19:36:43.939Z,60.80
2022-11-29T19:39:16.936Z,60.44
2022-11-29T19:41:46.332Z,60.34
2022-11-29T19:44:14.327Z,60.31
2022-11-29T19:46:46.087Z,59.90
2022-11-29T19:49:13.632Z,60.06
2022-11-29T19:51:41.637Z,60.03
2022-11-29T19:54:10.771Z,59.82
2022-11-29T19:56:39.117Z,60.01
2022-11-29T19:59:07.639Z,59.76
2022-11-29T20:01:43.389Z,59.34
2022-11-29T20:04:13.566Z,59.48
2022-11-29T20:06:41.777Z,59.15
2022-11-29T20:09:09.644Z,59.19
2022-11-29T20:11:36.746Z,59.06
2022-11-29T20:14:05.795Z,58.94
2022-11-29T20:16:34.092Z,59.22
2022-11-29T20:19:02.202Z,59.07
2022-11-29T20:21:34.336Z,59.09
2022-11-29T20:24:05.389Z,58.72
2022-11-29T20:26:35.344Z,58.80
2022-11-29T20:29:03.141Z,58.61
2022-11-29T20:31:32.320Z,58.66
2022-11-29T20:33:59.789Z,58.42
2022-11-29T20:36:48.362Z,58.36
2022-11-29T20:39:29.075Z,58.14
2022-11-29T20:42:21.100Z,58.39
2022-11-29T20:45:00.107Z,58.29
2022-11-29T20:47:33.505Z,58.32
2022-11-29T20:50:00.979Z,58.22
2022-11-29T20:52:37.477Z,58.18
2022-11-29T20:55:05.506Z,58.04
2022-11-29T20:57:32.632Z,57.90
2022-11-29T20:59:59.844Z,57.84
2022-11-29T21:02:27.494Z,57.63
2022-11-29T21:04:54.611Z,56.74
2022-11-29T21:07:21.873Z,56.84
2022-11-29T21:09:49.302Z,56.76
2022-11-29T21:12:17.098Z,56.80
2022-11-29T21:14:44.679Z,57.09
2022-11-29T21:17:12.449Z,57.02
2022-11-29T21:19:40.627Z,57.20
2022-11-29T21:22:22.915Z,57.05
2022-11-29T21:24:55.956Z,57.03
2022-11-29T21:27:29.467Z,57.27
2022-11-29T21:29:57.223Z,57.22
2022-11-29T21:32:27.298Z,57.40
2022-11-29T21:34:54.812Z,57.23
2022-11-29T21:37:26.742Z,57.18
2022-11-29T21:39:55.428Z,57.27
2022-11-29T21:42:22.701Z,57.60
2022-11-29T21:44:49.775Z,57.53
2022-11-29T21:47:16.979Z,57.78
2022-11-29T21:49:44.179Z,57.54
2022-11-29T21:52:11.539Z,57.84
2022-11-29T21:54:39.433Z,57.61
2022-11-29T21:57:06.644Z,57.81
2022-11-29T21:59:34.421Z,57.70
2022-11-29T22:02:02.553Z,58.06
2022-11-29T22:04:30.079Z,57.93
2022-11-29T22:06:57.601Z,57.91
2022-11-29T22:09:24.864Z,58.00
2022-11-29T22:11:51.895Z,57.98
2022-11-29T22:14:19.385Z,58.31
2022-11-29T22:16:50.936Z,58.10
2022-11-29T22:19:26.159Z,58.18
2022-11-29T22:21:56.476Z,58.37
2022-11-29T22:24:25.836Z,58.38
2022-11-29T22:26:54.389Z,58.31
2022-11-29T22:29:22.480Z,58.42
2022-11-29T22:31:53.232Z,58.64
2022-11-29T22:34:21.549Z,58.53
2022-11-29T22:36:48.696Z,58.97
2022-11-29T22:39:15.791Z,58.65
2022-11-29T22:41:42.785Z,58.69
2022-11-29T22:44:09.924Z,58.85
2022-11-29T22:46:39.450Z,58.90
2022-11-29T22:49:06.402Z,59.09
2022-11-29T22:51:35.675Z,59.09
2022-11-29T22:54:05.735Z,58.94
2022-11-29T22:56:35.371Z,59.05
2022-11-29T22:59:02.314Z,59.30
2022-11-29T23:01:31.636Z,59.25
2022-11-29T23:04:00.749Z,59.12
2022-11-29T23:06:29.612Z,59.16
2022-11-29T23:08:59.292Z,59.11
2022-11-29T23:11:28.816Z,59.35
2022-11-29T23:13:56.858Z,59.32
2022-11-29T23:16:27.755Z,59.57
2022-11-29T23:18:56.776Z,59.44
2022-11-29T23:21:31.444Z,59.35
2022-11-29T23:24:01.915Z,59.47
2022-11-29T23:26:32.154Z,59.60
2022-11-29T23:28:59.207Z,59.49
2022-11-29T23:31:26.234Z,59.53
2022-11-29T23:33:53.526Z,59.76
2022-11-29T23:36:20.459Z,59.76
2022-11-29T23:38:48.207Z,59.73
2022-11-29T23:41:15.449Z,59.66
2022-11-29T23:43:42.823Z,59.91
2022-11-29T23:46:17.510Z,59.79
2022-11-29T23:48:45.170Z,59.77
2022-11-29T23:51:12.802Z,59.81
2022-11-29T23:53:40.496Z,59.99
2022-11-29T23:56:11.869Z,60.04
2022-11-29T23:58:38.963Z,60.20
